Time;durP1;ratioP1;P1;durP2;ratioP2;P2;SDS_P1;SDS_P2;PMS_P1;PMS_P2;Temp;Humidity;BMP_temperature;BMP_pressure;BME280_temperature;BME280_humidity;BME280_pressure;Samples;Min_cycle;Max_cycle;Signal;HPM_P1;HPM_P2
2022/07/09 00:02:17;;;;;;;4.55;1.13;;;22.00;72.20;;;;;;4827975;29;20030;-79
2022/07/09 00:04:43;;;;;;;7.50;1.00;;;22.00;72.30;;;;;;4836347;29;20054;-79
2022/07/09 00:07:08;;;;;;;4.53;1.08;;;22.00;72.60;;;;;;4825312;29;20033;-79
2022/07/09 00:09:34;;;;;;;5.30;0.90;;;22.00;72.50;;;;;;4824383;29;20514;-79
2022/07/09 00:12:00;;;;;;;18.85;0.90;;;22.00;72.80;;;;;;4824395;29;20035;-79
2022/07/09 00:14:25;;;;;;;3.67;0.93;;;22.00;73.50;;;;;;4822623;29;20048;-79
2022/07/09 00:16:51;;;;;;;7.15;1.10;;;21.90;73.00;;;;;;4824067;29;20538;-79
2022/07/09 00:19:17;;;;;;;5.65;1.17;;;21.80;73.10;;;;;;4831519;29;20109;-79
2022/07/09 00:21:43;;;;;;;4.80;1.05;;;21.80;73.00;;;;;;4827066;29;20031;-79
2022/07/09 00:24:09;;;;;;;3.80;1.27;;;21.80;73.50;;;;;;4827290;29;20038;-79
2022/07/09 00:26:34;;;;;;;8.07;1.10;;;21.80;73.50;;;;;;4825486;29;20523;-79
2022/07/09 00:29:00;;;;;;;3.70;0.88;;;21.70;74.00;;;;;;4827026;29;20041;-79
2022/07/09 00:31:25;;;;;;;5.55;1.15;;;21.70;74.10;;;;;;4823934;29;20030;-79
2022/07/09 00:33:51;;;;;;;5.45;1.15;;;21.60;74.50;;;;;;4824394;29;20130;-79
2022/07/09 00:36:17;;;;;;;3.60;1.20;;;21.60;74.20;;;;;;4822541;29;20069;-79
2022/07/09 00:38:42;;;;;;;5.82;1.60;;;21.50;74.70;;;;;;4822291;29;20033;-79
2022/07/09 00:41:08;;;;;;;6.95;1.50;;;21.50;75.00;;;;;;4832859;29;20102;-79
2022/07/09 00:43:34;;;;;;;3.63;1.30;;;21.40;75.00;;;;;;4827836;29;20111;-79
2022/07/09 00:45:59;;;;;;;4.10;1.30;;;21.40;75.30;;;;;;4828845;29;20452;-79
2022/07/09 00:48:25;;;;;;;5.25;1.58;;;21.30;75.40;;;;;;4826559;29;20117;-79
2022/07/09 00:50:51;;;;;;;7.13;1.27;;;21.30;75.40;;;;;;4826316;29;20034;-79
2022/07/09 00:53:21;;;;;;;6.82;1.00;;;21.30;76.10;;;;;;4825781;29;20064;-79
2022/07/09 00:55:48;;;;;;;2.53;1.00;;;21.30;76.30;;;;;;4823825;29;20066;-79
2022/07/09 00:58:18;;;;;;;4.82;1.20;;;21.20;76.40;;;;;;4822761;29;20026;-78
2022/07/09 01:00:44;;;;;;;6.50;1.30;;;21.20;76.40;;;;;;4821792;29;20485;-78
2022/07/09 01:03:10;;;;;;;9.15;1.50;;;21.20;76.50;;;;;;4830611;29;20030;-80
2022/07/09 01:05:36;;;;;;;6.65;1.55;;;21.10;77.00;;;;;;4827881;29;20422;-79
2022/07/09 01:08:06;;;;;;;18.17;1.83;;;21.10;76.50;;;;;;4827414;29;20035;-79
2022/07/09 01:10:34;;;;;;;6.03;0.98;;;21.00;76.90;;;;;;4826953;29;20570;-79
2022/07/09 01:13:00;;;;;;;4.60;1.45;;;21.00;77.50;;;;;;4825189;29;20026;-78
2022/07/09 01:15:26;;;;;;;4.85;1.08;;;21.00;77.70;;;;;;4825877;29;20027;-79
2022/07/09 01:17:52;;;;;;;4.53;1.10;;;21.00;77.60;;;;;;4823151;29;20042;-79
2022/07/09 01:20:23;;;;;;;5.10;1.25;;;20.90;77.60;;;;;;4824346;29;20027;-79
2022/07/09 01:22:49;;;;;;;3.60;1.02;;;20.90;77.90;;;;;;4822047;29;20106;-79
2022/07/09 01:25:17;;;;;;;6.25;1.10;;;20.90;77.60;;;;;;4824950;29;20041;-79
2022/07/09 01:27:42;;;;;;;5.82;0.98;;;20.80;78.30;;;;;;4829226;29;20054;-79
2022/07/09 01:30:09;;;;;;;5.03;1.10;;;20.80;78.60;;;;;;4827872;29;20023;-78
2022/07/09 01:32:34;;;;;;;6.25;0.95;;;20.80;79.00;;;;;;4828205;29;20026;-79
2022/07/09 01:35:00;;;;;;;5.50;1.00;;;20.70;78.50;;;;;;4824993;29;21285;-79
2022/07/09 01:37:25;;;;;;;7.43;1.25;;;20.70;78.80;;;;;;4827407;29;20078;-79
2022/07/09 01:39:51;;;;;;;7.60;1.15;;;20.60;79.30;;;;;;4823703;29;20495;-79
2022/07/09 01:42:18;;;;;;;4.78;1.10;;;20.60;79.50;;;;;;4824742;29;20581;-79
2022/07/09 01:44:44;;;;;;;5.95;1.23;;;20.60;79.50;;;;;;4822414;29;20095;-79
2022/07/09 01:47:10;;;;;;;4.85;1.20;;;20.60;79.20;;;;;;4822204;29;20563;-79
2022/07/09 01:49:36;;;;;;;7.22;1.50;;;20.60;79.20;;;;;;4821341;29;20034;-79
2022/07/09 01:52:03;;;;;;;7.80;1.50;;;20.60;79.50;;;;;;4826814;29;20035;-79
2022/07/09 01:54:28;;;;;;;6.60;1.05;;;20.50;79.40;;;;;;4831041;29;20025;-78
2022/07/09 01:56:56;;;;;;;5.35;1.05;;;20.50;79.80;;;;;;4826520;29;20056;-78
2022/07/09 01:59:22;;;;;;;8.40;1.45;;;20.50;79.70;;;;;;4830367;29;20515;-79
2022/07/09 02:01:48;;;;;;;3.85;1.30;;;20.40;80.20;;;;;;4832575;29;20024;-78
2022/07/09 02:04:13;;;;;;;3.78;0.82;;;20.40;80.00;;;;;;4825999;29;20045;-79
2022/07/09 02:06:39;;;;;;;3.55;1.10;;;20.40;80.00;;;;;;4835998;29;20026;-78
2022/07/09 02:09:05;;;;;;;3.55;1.15;;;20.40;80.40;;;;;;4831264;29;20109;-78
2022/07/09 02:11:30;;;;;;;2.05;0.90;;;20.40;80.70;;;;;;4832769;29;20034;-78
2022/07/09 02:13:56;;;;;;;5.18;1.23;;;20.40;80.60;;;;;;4830579;29;20253;-78
2022/07/09 02:16:22;;;;;;;9.65;1.20;;;20.30;80.40;;;;;;4829530;29;20090;-79
2022/07/09 02:18:47;;;;;;;6.63;1.00;;;20.30;80.90;;;;;;4830246;29;20338;-78
2022/07/09 02:21:13;;;;;;;4.00;1.15;;;20.30;80.80;;;;;;4826282;29;20306;-79
2022/07/09 02:23:39;;;;;;;5.18;1.05;;;20.20;81.10;;;;;;4827483;29;20037;-78
2022/07/09 02:26:04;;;;;;;6.78;1.10;;;20.20;81.40;;;;;;4826634;29;20113;-78
2022/07/09 02:28:30;;;;;;;4.32;1.00;;;20.20;81.40;;;;;;4834187;29;20042;-79
2022/07/09 02:30:57;;;;;;;3.78;0.82;;;20.20;81.60;;;;;;4834504;29;20054;-79
2022/07/09 02:33:23;;;;;;;5.00;0.90;;;20.20;81.50;;;;;;4831260;29;20034;-79
2022/07/09 02:35:49;;;;;;;10.00;1.20;;;20.10;81.40;;;;;;4833368;29;20026;-79
2022/07/09 02:38:15;;;;;;;5.57;1.48;;;20.10;82.20;;;;;;4829552;29;20038;-79
2022/07/09 02:40:40;;;;;;;5.30;1.20;;;20.10;82.30;;;;;;4831269;29;20018;-79
2022/07/09 02:43:06;;;;;;;3.75;1.08;;;20.00;82.20;;;;;;4828247;29;20043;-79
2022/07/09 02:45:31;;;;;;;7.93;1.15;;;20.00;82.60;;;;;;4828694;29;20027;-78
2022/07/09 02:47:57;;;;;;;3.15;1.17;;;20.00;82.90;;;;;;4826940;29;20037;-79
2022/07/09 02:50:23;;;;;;;4.28;1.15;;;20.00;82.90;;;;;;4826889;29;20106;-79
2022/07/09 02:52:49;;;;;;;4.82;1.08;;;20.00;83.50;;;;;;4837180;29;20452;-79
2022/07/09 02:55:14;;;;;;;7.05;1.27;;;19.90;83.70;;;;;;4831578;29;20026;-78
2022/07/09 02:57:40;;;;;;;4.60;1.30;;;19.90;83.50;;;;;;4834556;29;20395;-79
2022/07/09 03:00:06;;;;;;;8.27;1.20;;;19.90;83.40;;;;;;4826470;29;20503;-78
2022/07/09 03:02:32;;;;;;;4.00;1.35;;;19.90;83.60;;;;;;4832090;29;20499;-79
2022/07/09 03:04:58;;;;;;;8.95;1.13;;;19.90;83.60;;;;;;4835761;29;20050;-79
2022/07/09 03:07:23;;;;;;;10.35;1.25;;;19.90;83.70;;;;;;4830692;29;20479;-79
2022/07/09 03:09:49;;;;;;;7.38;1.17;;;19.80;83.80;;;;;;4828289;29;20523;-79
2022/07/09 03:12:15;;;;;;;9.65;1.17;;;19.80;84.20;;;;;;4828160;29;20031;-79
2022/07/09 03:14:40;;;;;;;8.77;1.33;;;19.80;84.50;;;;;;4826671;29;20118;-79
2022/07/09 03:17:06;;;;;;;3.90;1.10;;;19.70;84.90;;;;;;4827073;29;20027;-78
2022/07/09 03:19:32;;;;;;;4.95;1.20;;;19.70;85.00;;;;;;4836988;29;20043;-78
2022/07/09 03:21:57;;;;;;;5.95;0.98;;;19.70;85.50;;;;;;4825499;29;20559;-78
2022/07/09 03:24:23;;;;;;;4.45;1.10;;;19.60;86.00;;;;;;4823536;29;20034;-79
2022/07/09 03:26:49;;;;;;;5.05;1.13;;;19.60;86.40;;;;;;4825619;29;20068;-79
2022/07/09 03:29:15;;;;;;;5.55;1.48;;;19.50;86.80;;;;;;4831943;29;20033;-79
2022/07/09 03:31:40;;;;;;;10.30;1.48;;;19.50;86.50;;;;;;4828215;29;20114;-79
2022/07/09 03:34:06;;;;;;;4.47;1.20;;;19.50;87.10;;;;;;4831114;29;20034;-79
2022/07/09 03:36:32;;;;;;;5.10;1.30;;;19.40;87.00;;;;;;4826598;29;20031;-79
2022/07/09 03:38:58;;;;;;;5.40;1.00;;;19.40;87.30;;;;;;4828874;29;20038;-78
2022/07/09 03:41:23;;;;;;;6.85;1.27;;;19.30;87.60;;;;;;4825440;29;20282;-78
2022/07/09 03:43:49;;;;;;;4.47;1.20;;;19.30;87.80;;;;;;4826613;29;20046;-79
2022/07/09 03:46:15;;;;;;;7.57;1.17;;;19.30;88.30;;;;;;4824037;29;20030;-79
2022/07/09 03:48:41;;;;;;;5.20;1.42;;;19.20;88.40;;;;;;4824077;29;20042;-79
2022/07/09 03:51:06;;;;;;;7.80;1.27;;;19.20;88.80;;;;;;4816805;29;20049;-80
2022/07/09 03:53:33;;;;;;;3.85;0.98;;;19.20;88.80;;;;;;4828144;29;20038;-79
2022/07/09 03:55:58;;;;;;;8.73;1.30;;;19.10;89.00;;;;;;4831733;29;20018;-79
2022/07/09 03:58:24;;;;;;;5.53;1.40;;;19.10;89.60;;;;;;4826712;29;20069;-78
2022/07/09 04:00:52;;;;;;;5.88;1.20;;;19.10;89.70;;;;;;4822991;29;20039;-78
2022/07/09 04:03:18;;;;;;;5.82;1.75;;;19.10;89.50;;;;;;4827019;29;20117;-79
2022/07/09 04:05:44;;;;;;;6.43;1.40;;;19.10;89.70;;;;;;4828868;29;20141;-79
2022/07/09 04:08:10;;;;;;;7.85;1.30;;;19.00;90.10;;;;;;4829777;29;20057;-79
2022/07/09 04:10:36;;;;;;;5.70;1.42;;;19.00;90.10;;;;;;4827933;29;20467;-79
2022/07/09 04:13:02;;;;;;;6.75;1.13;;;18.90;90.40;;;;;;4826726;29;20062;-79
2022/07/09 04:15:27;;;;;;;4.47;1.17;;;18.90;90.60;;;;;;4827221;29;20033;-78
2022/07/09 04:17:53;;;;;;;8.63;1.23;;;18.90;90.60;;;;;;4824397;29;20026;-79
2022/07/09 04:20:18;;;;;;;6.65;1.30;;;18.90;90.80;;;;;;4825333;29;20034;-79
2022/07/09 04:22:44;;;;;;;5.75;1.40;;;18.80;90.70;;;;;;4823224;29;20045;-79
2022/07/09 04:25:10;;;;;;;3.17;1.42;;;18.80;90.90;;;;;;4822842;29;20061;-79
2022/07/09 04:27:38;;;;;;;3.53;1.20;;;18.80;91.10;;;;;;4827869;29;20069;-79
2022/07/09 04:30:06;;;;;;;4.63;1.45;;;18.80;91.10;;;;;;4828564;29;20034;-78
2022/07/09 04:32:32;;;;;;;2.85;0.75;;;18.80;91.30;;;;;;4830444;29;20022;-78
2022/07/09 04:34:57;;;;;;;11.02;1.50;;;18.80;91.60;;;;;;4826486;29;20034;-79
2022/07/09 04:37:23;;;;;;;8.90;1.30;;;18.80;91.60;;;;;;4829281;29;20018;-78
2022/07/09 04:39:48;;;;;;;6.30;1.20;;;18.80;91.90;;;;;;4825126;29;20031;-79
2022/07/09 04:42:14;;;;;;;5.47;1.33;;;18.80;91.80;;;;;;4826537;29;20022;-79
2022/07/09 04:44:41;;;;;;;9.23;1.30;;;18.70;92.10;;;;;;4823656;29;20502;-79
2022/07/09 04:47:07;;;;;;;4.43;1.23;;;18.70;92.10;;;;;;4823985;29;20019;-79
2022/07/09 04:49:33;;;;;;;5.68;1.38;;;18.70;92.30;;;;;;4822106;29;20127;-79
2022/07/09 04:51:59;;;;;;;12.57;1.70;;;18.70;92.40;;;;;;4822118;29;20034;-79
2022/07/09 04:54:24;;;;;;;4.40;1.40;;;18.70;92.70;;;;;;4832574;29;20101;-79
2022/07/09 04:56:50;;;;;;;7.72;1.50;;;18.70;92.70;;;;;;4826812;29;20439;-79
2022/07/09 04:59:16;;;;;;;4.53;1.30;;;18.70;92.80;;;;;;4824992;29;20026;-79
2022/07/09 05:01:42;;;;;;;8.70;1.52;;;18.70;92.80;;;;;;4822152;29;20266;-79
2022/07/09 05:04:07;;;;;;;3.92;1.33;;;18.70;92.90;;;;;;4827260;29;20081;-79
2022/07/09 05:06:33;;;;;;;5.50;1.17;;;18.70;92.90;;;;;;4829676;29;20046;-79
2022/07/09 05:08:59;;;;;;;5.10;1.30;;;18.70;93.10;;;;;;4827570;29;20037;-78
2022/07/09 05:11:25;;;;;;;7.88;1.48;;;18.70;93.00;;;;;;4826865;29;20038;-79
2022/07/09 05:13:51;;;;;;;4.38;1.35;;;18.80;93.20;;;;;;4825576;29;20300;-79
2022/07/09 05:16:16;;;;;;;5.28;1.40;;;18.80;93.30;;;;;;4824430;29;20279;-79
2022/07/09 05:18:42;;;;;;;5.82;1.63;;;18.80;93.40;;;;;;4825697;29;20136;-79
2022/07/09 05:21:08;;;;;;;6.03;1.58;;;18.80;93.70;;;;;;4822982;29;20464;-79
2022/07/09 05:23:34;;;;;;;4.20;1.50;;;19.00;93.60;;;;;;4822837;29;20125;-79
2022/07/09 05:26:00;;;;;;;3.15;1.70;;;19.00;93.80;;;;;;4834984;29;20118;-79
2022/07/09 05:28:26;;;;;;;3.13;1.27;;;19.10;93.70;;;;;;4822678;29;20560;-79
2022/07/09 05:30:52;;;;;;;3.90;1.20;;;19.20;93.50;;;;;;4830297;29;20018;-79
2022/07/09 05:33:19;;;;;;;3.90;1.58;;;19.20;93.60;;;;;;4825468;29;20037;-79
2022/07/09 05:35:44;;;;;;;3.72;1.38;;;19.30;93.70;;;;;;4820722;29;20506;-79
2022/07/09 05:38:10;;;;;;;4.78;1.60;;;19.30;93.80;;;;;;4824694;29;20038;-79
2022/07/09 05:40:36;;;;;;;9.02;1.42;;;19.30;93.70;;;;;;4826602;29;20033;-79
2022/07/09 05:43:01;;;;;;;3.83;1.73;;;19.40;93.80;;;;;;4823109;29;20022;-78
2022/07/09 05:45:27;;;;;;;3.03;1.58;;;19.50;93.90;;;;;;4824164;29;20412;-79
2022/07/09 05:47:53;;;;;;;8.77;1.52;;;19.50;93.80;;;;;;4821923;29;20106;-79
2022/07/09 05:50:18;;;;;;;5.18;1.58;;;19.60;93.60;;;;;;4821846;29;20109;-78
2022/07/09 05:52:45;;;;;;;2.60;1.38;;;19.60;93.70;;;;;;4826466;29;20034;-78
2022/07/09 05:55:11;;;;;;;6.18;2.00;;;19.70;93.90;;;;;;4826867;29;20102;-79
2022/07/09 05:57:37;;;;;;;4.82;1.75;;;19.70;93.80;;;;;;4829367;29;20551;-78
2022/07/09 06:00:04;;;;;;;5.03;1.95;;;19.80;93.70;;;;;;4821499;29;20503;-79
2022/07/09 06:02:30;;;;;;;7.82;2.00;;;19.90;93.40;;;;;;4820932;29;20050;-78
2022/07/09 06:04:55;;;;;;;6.45;1.50;;;19.90;93.40;;;;;;4830586;29;20104;-78
2022/07/09 06:07:21;;;;;;;4.60;1.85;;;19.90;93.40;;;;;;4827523;29;20029;-80
2022/07/09 06:09:47;;;;;;;7.97;1.75;;;20.00;93.40;;;;;;4827914;29;20018;-79
2022/07/09 06:12:13;;;;;;;7.53;2.10;;;20.10;93.50;;;;;;4826795;29;20049;-78
2022/07/09 06:14:38;;;;;;;5.38;1.50;;;20.10;93.30;;;;;;4824214;29;20488;-79
2022/07/09 06:17:08;;;;;;;6.43;2.10;;;20.20;93.00;;;;;;4825821;29;20034;-79
2022/07/09 06:19:34;;;;;;;7.25;1.88;;;20.30;92.80;;;;;;4822631;29;20030;-78
2022/07/09 06:22:01;;;;;;;7.20;1.65;;;20.40;93.10;;;;;;4823509;29;20038;-79
2022/07/09 06:24:27;;;;;;;4.72;1.70;;;20.50;93.10;;;;;;4821466;29;20038;-79
2022/07/09 06:26:53;;;;;;;8.63;2.22;;;20.60;92.60;;;;;;4820837;29;20030;-79
2022/07/09 06:29:19;;;;;;;6.90;1.63;;;20.70;92.60;;;;;;4820914;29;20170;-79
2022/07/09 06:31:45;;;;;;;5.63;1.85;;;20.80;92.50;;;;;;4826784;29;20034;-79
2022/07/09 06:34:11;;;;;;;6.20;1.63;;;20.90;92.60;;;;;;4828702;29;20032;-79
2022/07/09 06:36:38;;;;;;;7.13;1.90;;;20.90;92.10;;;;;;4824439;29;20436;-79
2022/07/09 06:41:48;;;;;;;5.72;1.80;;;21.00;92.10;;;;;;4823448;29;20420;-75
2022/07/09 06:44:13;;;;;;;5.18;1.60;;;21.10;91.70;;;;;;4825797;29;20069;-77
2022/07/09 06:46:39;;;;;;;7.40;2.28;;;21.20;91.80;;;;;;4829120;29;20095;-76
2022/07/09 06:49:05;;;;;;;8.07;1.63;;;21.30;91.70;;;;;;4830118;29;20038;-77
2022/07/09 06:51:31;;;;;;;6.93;1.80;;;21.30;91.80;;;;;;4834263;29;20096;-77
2022/07/09 06:53:57;;;;;;;3.70;1.90;;;21.40;91.80;;;;;;4832699;29;20029;-77
2022/07/09 06:56:23;;;;;;;3.80;1.67;;;21.60;91.70;;;;;;4821861;29;20030;-77
2022/07/09 06:58:49;;;;;;;6.32;1.70;;;21.70;91.30;;;;;;4823076;29;20022;-77
2022/07/09 07:01:15;;;;;;;4.45;1.50;;;21.80;91.30;;;;;;4823282;29;20026;-77
2022/07/09 07:03:40;;;;;;;7.78;1.70;;;21.80;91.30;;;;;;4822922;29;20506;-77
2022/07/09 07:06:06;;;;;;;6.93;1.88;;;21.90;91.00;;;;;;4822727;29;20077;-77
2022/07/09 07:08:33;;;;;;;4.50;1.63;;;22.00;90.50;;;;;;4820623;29;20115;-77
2022/07/09 07:10:59;;;;;;;6.55;1.80;;;22.10;90.40;;;;;;4823318;29;20030;-77
2022/07/09 07:13:25;;;;;;;7.57;2.15;;;22.20;90.70;;;;;;4826360;29;20038;-76
2022/07/09 07:15:50;;;;;;;6.97;1.58;;;22.30;90.60;;;;;;4825765;29;20031;-77
2022/07/09 07:18:16;;;;;;;3.90;1.80;;;22.50;90.40;;;;;;4829505;29;20034;-77
2022/07/09 07:20:43;;;;;;;5.47;1.75;;;22.50;89.70;;;;;;4832684;29;20074;-77
2022/07/09 07:23:09;;;;;;;3.40;1.65;;;22.60;89.60;;;;;;4828165;29;20042;-77
2022/07/09 07:25:34;;;;;;;4.05;1.70;;;22.70;88.90;;;;;;4839519;29;20034;-77
2022/07/09 07:28:01;;;;;;;7.05;1.85;;;22.80;88.40;;;;;;4827486;29;20121;-77
2022/07/09 07:30:27;;;;;;;6.90;1.73;;;22.90;87.60;;;;;;4826000;29;20065;-77
2022/07/09 07:32:53;;;;;;;6.13;1.60;;;23.00;87.50;;;;;;4822751;29;20406;-77
2022/07/09 07:35:18;;;;;;;5.18;1.85;;;23.10;87.40;;;;;;4824638;29;20302;-77
2022/07/09 07:37:44;;;;;;;8.00;1.48;;;23.10;87.70;;;;;;4828991;29;20540;-77
2022/07/09 07:40:10;;;;;;;6.00;1.77;;;23.20;87.60;;;;;;4830703;29;20560;-77
2022/07/09 07:42:36;;;;;;;5.85;1.50;;;23.20;88.00;;;;;;4825463;29;20029;-77
2022/07/09 07:45:02;;;;;;;6.35;1.70;;;23.40;87.20;;;;;;4829547;29;20042;-78
2022/07/09 07:47:27;;;;;;;5.78;1.83;;;23.40;86.30;;;;;;4830316;29;20076;-77
2022/07/09 07:49:53;;;;;;;8.30;1.75;;;23.50;86.10;;;;;;4826520;29;20697;-77
2022/07/09 07:52:19;;;;;;;5.68;1.80;;;23.70;85.60;;;;;;4829127;29;20495;-77
2022/07/09 07:54:46;;;;;;;6.32;1.83;;;23.80;86.40;;;;;;4824978;29;20443;-77
2022/07/09 07:57:11;;;;;;;7.28;1.90;;;23.90;85.80;;;;;;4826721;29;20120;-77
2022/07/09 07:59:37;;;;;;;5.07;2.00;;;23.90;85.10;;;;;;4823424;29;20363;-77
2022/07/09 08:02:03;;;;;;;8.73;1.85;;;24.00;85.50;;;;;;4823005;29;20030;-77
2022/07/09 08:04:29;;;;;;;6.13;1.77;;;24.10;85.90;;;;;;4822864;29;20042;-77
2022/07/09 08:06:54;;;;;;;8.55;1.70;;;24.20;84.70;;;;;;4832860;29;20159;-77
2022/07/09 08:09:20;;;;;;;6.93;1.50;;;24.30;83.80;;;;;;4827252;29;20514;-77
2022/07/09 08:11:46;;;;;;;5.10;1.50;;;24.40;83.70;;;;;;4830751;29;20014;-77
2022/07/09 08:14:12;;;;;;;8.18;1.88;;;24.50;84.30;;;;;;4821900;29;20086;-77
2022/07/09 08:16:37;;;;;;;7.15;1.80;;;24.60;82.80;;;;;;4822249;29;20041;-77
2022/07/09 08:19:03;;;;;;;7.57;1.52;;;24.70;82.20;;;;;;4826533;29;20026;-77
2022/07/09 08:21:28;;;;;;;8.65;2.40;;;24.80;82.40;;;;;;4824664;29;20030;-77
2022/07/09 08:23:54;;;;;;;7.95;1.70;;;24.90;81.90;;;;;;4821582;29;20224;-77
2022/07/09 08:26:22;;;;;;;5.68;1.52;;;25.00;83.10;;;;;;4822774;29;20027;-78
2022/07/09 08:28:48;;;;;;;8.27;1.75;;;25.10;81.70;;;;;;4826462;29;20434;-77
2022/07/09 08:31:17;;;;;;;6.85;1.73;;;25.10;81.30;;;;;;4823639;29;20087;-78
2022/07/09 08:33:43;;;;;;;6.35;1.52;;;25.20;82.10;;;;;;4828792;29;20042;-78
2022/07/09 08:36:09;;;;;;;8.77;1.70;;;25.30;81.70;;;;;;4826747;29;20365;-77
2022/07/09 08:38:35;;;;;;;5.07;1.67;;;25.30;82.20;;;;;;4827765;29;20054;-77
2022/07/09 08:41:06;;;;;;;10.10;1.60;;;25.50;81.70;;;;;;4828423;29;20459;-78
2022/07/09 08:43:37;;;;;;;7.88;1.60;;;25.50;80.50;;;;;;4825993;29;20053;-78
2022/07/09 08:46:04;;;;;;;7.05;1.35;;;25.60;80.60;;;;;;4826645;29;20498;-78
2022/07/09 08:48:35;;;;;;;10.90;1.85;;;25.70;79.80;;;;;;4825915;29;20026;-78
2022/07/09 08:51:02;;;;;;;6.22;1.77;;;25.70;79.80;;;;;;4831029;29;20114;-78
2022/07/09 08:53:28;;;;;;;7.18;1.70;;;25.90;80.00;;;;;;4831207;29;20395;-78
2022/07/09 08:55:54;;;;;;;4.75;1.23;;;25.90;78.50;;;;;;4828782;29;20030;-78
2022/07/09 08:58:20;;;;;;;5.88;1.35;;;26.00;78.40;;;;;;4827329;29;20026;-78
2022/07/09 09:00:48;;;;;;;7.93;1.50;;;26.00;78.70;;;;;;4828082;29;20034;-77
2022/07/09 09:03:14;;;;;;;8.90;1.63;;;26.10;78.50;;;;;;4827473;29;20042;-78
2022/07/09 09:05:39;;;;;;;9.38;1.25;;;26.20;78.50;;;;;;4832768;29;20046;-78
2022/07/09 09:08:24;;;;;;;7.63;1.67;;;26.20;77.90;;;;;;4823861;29;20030;-78
2022/07/09 09:10:49;;;;;;;7.75;1.25;;;26.30;78.30;;;;;;4824688;29;20372;-78
2022/07/09 09:13:19;;;;;;;6.25;1.55;;;26.40;78.40;;;;;;4822323;29;20049;-78
2022/07/09 09:15:45;;;;;;;7.28;1.38;;;26.50;78.80;;;;;;4830767;29;20030;-77
2022/07/09 09:18:11;;;;;;;8.02;1.23;;;26.60;76.60;;;;;;4829299;29;20421;-78
2022/07/09 09:20:37;;;;;;;10.98;1.63;;;26.70;76.70;;;;;;4823879;29;20030;-77
2022/07/09 09:23:07;;;;;;;4.22;1.13;;;26.70;77.70;;;;;;4831620;29;20038;-77
2022/07/09 09:25:33;;;;;;;4.70;1.58;;;26.90;76.70;;;;;;4834256;29;20313;-77
2022/07/09 09:27:59;;;;;;;8.48;1.52;;;26.90;76.80;;;;;;4835798;29;20028;-78
2022/07/09 09:30:28;;;;;;;6.43;1.40;;;27.00;75.70;;;;;;4833308;29;20026;-77
2022/07/09 09:33:04;;;;;;;5.88;1.63;;;27.10;75.20;;;;;;4833457;29;20042;-77
2022/07/09 09:35:32;;;;;;;8.35;1.73;;;27.10;76.10;;;;;;4832478;29;20062;-77
2022/07/09 09:37:58;;;;;;;8.82;2.03;;;27.10;75.80;;;;;;4830887;29;20033;-78
2022/07/09 09:40:25;;;;;;;6.32;1.45;;;27.10;77.10;;;;;;4837654;29;20034;-80
2022/07/09 09:42:52;;;;;;;5.65;1.45;;;27.30;76.80;;;;;;4839820;29;20072;-80
2022/07/09 09:45:18;;;;;;;7.57;1.42;;;27.40;76.70;;;;;;4837724;29;20214;-80
2022/07/09 09:47:50;;;;;;;9.38;1.40;;;27.40;77.70;;;;;;4837295;29;20018;-80
2022/07/09 09:50:22;;;;;;;8.57;1.30;;;27.50;76.70;;;;;;4835923;29;20045;-80
2022/07/09 09:52:51;;;;;;;6.65;1.55;;;27.60;75.30;;;;;;4836604;29;20027;-81
2022/07/09 09:55:18;;;;;;;6.57;1.63;;;27.70;75.10;;;;;;4833197;29;20045;-82
2022/07/09 09:57:44;;;;;;;5.47;1.30;;;27.70;74.70;;;;;;4832982;29;20079;-82
2022/07/09 10:00:15;;;;;;;6.57;1.40;;;27.80;75.70;;;;;;4832117;29;20042;-82
2022/07/09 10:02:46;;;;;;;4.35;1.40;;;27.90;75.70;;;;;;4831575;29;20272;-82
2022/07/09 10:05:12;;;;;;;6.57;1.50;;;28.00;74.60;;;;;;4836672;29;20054;-82
2022/07/09 10:07:39;;;;;;;5.28;1.60;;;28.00;73.60;;;;;;4835982;29;20346;-82
2022/07/09 10:10:06;;;;;;;7.38;1.23;;;28.10;73.80;;;;;;4839841;29;20519;-82
2022/07/09 10:12:36;;;;;;;4.15;1.30;;;28.10;74.60;;;;;;4835593;29;20030;-82
2022/07/09 10:15:28;;;;;;;11.85;1.35;;;28.20;73.60;;;;;;4845293;29;20037;-82
2022/07/09 10:17:54;;;;;;;4.75;1.30;;;28.40;73.00;;;;;;4833752;29;20051;-83
2022/07/09 10:20:32;;;;;;;5.78;1.17;;;28.50;72.40;;;;;;4848804;29;20026;-85
2022/07/09 10:22:57;;;;;;;7.70;1.45;;;28.50;73.50;;;;;;4833944;29;20049;-85
2022/07/09 10:25:29;;;;;;;6.70;1.42;;;28.50;72.10;;;;;;4835038;29;20046;-85
2022/07/09 10:27:55;;;;;;;3.38;1.92;;;28.60;72.90;;;;;;4837984;29;20345;-85
2022/07/09 10:30:30;;;;;;;5.57;1.77;;;28.70;73.20;;;;;;4837514;29;20026;-85
2022/07/09 10:33:11;;;;;;;5.57;1.52;;;28.70;72.90;;;;;;4835872;29;20085;-85
2022/07/09 10:35:48;;;;;;;8.48;2.20;;;28.80;73.20;;;;;;4835857;29;20321;-85
2022/07/09 10:38:15;;;;;;;6.35;1.83;;;28.90;72.10;;;;;;4829803;29;20034;-85
2022/07/09 10:40:42;;;;;;;6.50;1.50;;;29.00;72.20;;;;;;4833244;29;20087;-85
2022/07/09 10:43:08;;;;;;;3.95;1.40;;;29.00;72.30;;;;;;4834467;29;20026;-85
2022/07/09 10:45:34;;;;;;;3.45;1.40;;;29.00;72.00;;;;;;4833375;29;20033;-85
2022/07/09 10:48:02;;;;;;;6.40;1.58;;;29.00;73.60;;;;;;4831396;29;20040;-85
2022/07/09 10:50:30;;;;;;;9.23;1.50;;;29.00;71.80;;;;;;4838707;29;20027;-83
2022/07/09 10:52:56;;;;;;;3.67;1.20;;;29.10;71.30;;;;;;4835667;29;20085;-83
2022/07/09 10:55:24;;;;;;;5.13;2.10;;;29.10;71.30;;;;;;4835211;29;20046;-83
2022/07/09 10:57:50;;;;;;;8.90;1.55;;;29.30;71.50;;;;;;4831159;29;20034;-83
2022/07/09 11:00:28;;;;;;;4.22;1.20;;;29.30;71.10;;;;;;4828267;29;20039;-83
2022/07/09 11:02:58;;;;;;;6.63;1.83;;;29.40;71.90;;;;;;4840159;29;20038;-83
2022/07/09 11:05:25;;;;;;;6.93;1.35;;;29.60;70.60;;;;;;4843958;29;20430;-83
2022/07/09 11:08:03;;;;;;;8.77;2.20;;;29.70;71.00;;;;;;4838679;29;20055;-83
2022/07/09 11:10:30;;;;;;;19.27;9.20;;;29.90;70.80;;;;;;4837806;29;20026;-83
2022/07/09 11:12:59;;;;;;;14.68;7.18;;;29.90;69.40;;;;;;4837460;29;20329;-83
2022/07/09 11:15:29;;;;;;;7.50;2.85;;;30.00;70.80;;;;;;4839388;29;20032;-83
2022/07/09 11:18:25;;;;;;;6.68;4.47;;;30.10;69.70;;;;;;4836220;29;20133;-84
2022/07/09 11:20:52;;;;;;;14.45;6.78;;;30.10;69.90;;;;;;4834755;29;20039;-83
2022/07/09 11:23:17;;;;;;;8.32;3.78;;;30.20;70.20;;;;;;4835081;29;20037;-84
2022/07/09 11:25:46;;;;;;;4.28;1.33;;;30.50;68.80;;;;;;4834623;29;20026;-88
2022/07/09 11:28:20;;;;;;;2.72;1.17;;;30.50;68.40;;;;;;4839889;29;20086;-84
2022/07/09 11:30:45;;;;;;;;;;;30.60;68.40;;;;;;4838695;29;20037;-84
2022/07/09 11:33:14;;;;;;;5.07;1.83;;;30.70;67.80;;;;;;4834500;29;19908;-84
2022/07/09 11:35:44;;;;;;;4.00;1.52;;;30.70;68.10;;;;;;4835718;29;20013;-84
2022/07/09 11:38:10;;;;;;;4.60;1.25;;;30.80;68.70;;;;;;4843434;29;20034;-83
2022/07/09 11:40:36;;;;;;;2.90;1.20;;;31.00;67.40;;;;;;4836131;29;20054;-84
2022/07/09 11:43:01;;;;;;;6.97;1.13;;;30.90;67.80;;;;;;4833591;29;20073;-83
2022/07/09 11:45:29;;;;;;;5.50;1.23;;;30.90;67.40;;;;;;4833870;29;20234;-84
2022/07/09 11:48:04;;;;;;;6.70;1.00;;;30.90;66.40;;;;;;4838561;29;20022;-87
2022/07/09 11:50:30;;;;;;;4.45;1.20;;;31.00;67.50;;;;;;4830817;29;20083;-84
2022/07/09 11:52:55;;;;;;;7.30;1.80;;;31.10;67.00;;;;;;4841729;29;20034;-84
2022/07/09 11:55:29;;;;;;;3.90;0.95;;;31.20;67.10;;;;;;4844690;29;20122;-84
2022/07/09 11:58:03;;;;;;;8.20;1.90;;;31.30;65.90;;;;;;4839338;29;20089;-84
2022/07/09 12:00:30;;;;;;;1.98;0.95;;;31.40;66.80;;;;;;4835975;29;20083;-84
2022/07/09 12:02:59;;;;;;;5.35;1.02;;;31.50;66.50;;;;;;4837694;29;20212;-84
2022/07/09 12:05:30;;;;;;;3.40;1.38;;;31.70;66.40;;;;;;4834470;29;20053;-84
2022/07/09 12:07:57;;;;;;;4.07;0.90;;;31.70;66.20;;;;;;4833920;29;20182;-84
2022/07/09 12:10:29;;;;;;;4.43;1.40;;;31.90;65.10;;;;;;4833877;29;20030;-84
2022/07/09 12:12:56;;;;;;;3.85;1.23;;;31.90;64.40;;;;;;4835078;29;20037;-84
2022/07/09 12:15:21;;;;;;;5.15;1.60;;;32.10;65.30;;;;;;4841736;29;20038;-84
2022/07/09 12:17:52;;;;;;;5.97;1.15;;;32.20;64.70;;;;;;4835981;29;20030;-84
2022/07/09 12:20:18;;;;;;;5.63;1.42;;;32.30;64.40;;;;;;4836937;29;20091;-84
2022/07/09 12:22:44;;;;;;;4.85;1.50;;;32.30;64.40;;;;;;4850348;29;20033;-84
2022/07/09 12:25:09;;;;;;;4.57;0.98;;;32.30;65.10;;;;;;4838129;29;20038;-83
2022/07/09 12:27:35;;;;;;;3.95;1.25;;;32.50;64.90;;;;;;4834663;29;20031;-84
2022/07/09 12:30:01;;;;;;;3.65;1.08;;;32.60;64.30;;;;;;4827422;29;20041;-84
2022/07/09 12:32:27;;;;;;;2.80;0.95;;;32.80;64.30;;;;;;4834494;29;20018;-85
2022/07/09 12:34:52;;;;;;;6.07;1.17;;;33.00;63.00;;;;;;4831495;29;20030;-84
2022/07/09 12:37:18;;;;;;;1.98;0.80;;;33.00;62.20;;;;;;4837168;29;20061;-84
2022/07/09 12:39:44;;;;;;;3.92;1.60;;;33.00;63.00;;;;;;4833621;29;20098;-82
2022/07/09 12:42:09;;;;;;;2.85;1.00;;;33.20;63.40;;;;;;4834469;29;20346;-82
2022/07/09 12:44:35;;;;;;;3.83;1.25;;;33.30;61.50;;;;;;4832863;29;20241;-82
2022/07/09 12:47:00;;;;;;;3.78;1.30;;;33.50;61.80;;;;;;4846588;29;20079;-82